Time;durP1;ratioP1;P1;durP2;ratioP2;P2;SDS_P1;SDS_P2;PMS_P1;PMS_P2;Temp;Humidity;BMP_temperature;BMP_pressure;BME280_temperature;BME280_humidity;BME280_pressure;Samples;Min_cycle;Max_cycle;Signal;HPM_P1;HPM_P2
2021/05/22 00:01:20;;;;;;;2.57;2.37;;;14.70;99.90;;;;;;4985585;28;20269;-77
2021/05/22 00:03:47;;;;;;;2.83;2.20;;;14.70;99.90;;;;;;4985555;28;20225;-77
2021/05/22 00:06:13;;;;;;;2.17;1.97;;;14.60;99.90;;;;;;4985654;28;20206;-77
2021/05/22 00:08:39;;;;;;;1.90;1.80;;;14.60;99.90;;;;;;4985666;28;20620;-77
2021/05/22 00:11:05;;;;;;;4.43;2.10;;;14.60;99.90;;;;;;4985873;28;20206;-77
2021/05/22 00:13:32;;;;;;;2.03;1.90;;;14.60;99.90;;;;;;4989223;28;20238;-77
2021/05/22 00:15:58;;;;;;;3.40;2.23;;;14.50;99.90;;;;;;4988912;28;20210;-77
2021/05/22 00:18:24;;;;;;;2.10;2.00;;;14.50;99.90;;;;;;4988557;28;20202;-77
2021/05/22 00:20:50;;;;;;;3.63;2.33;;;14.50;99.90;;;;;;4988415;28;20578;-77
2021/05/22 00:23:16;;;;;;;3.37;1.97;;;14.40;99.90;;;;;;4988984;28;20218;-76
2021/05/22 00:25:43;;;;;;;3.50;2.20;;;14.40;99.90;;;;;;4989820;28;20215;-76
2021/05/22 00:28:09;;;;;;;3.23;2.10;;;14.30;99.90;;;;;;4988842;28;20246;-76
2021/05/22 00:30:36;;;;;;;2.30;2.10;;;14.30;99.90;;;;;;5000351;28;20228;-77
2021/05/22 00:33:02;;;;;;;2.60;2.33;;;14.30;99.90;;;;;;5008323;28;20638;-76
2021/05/22 00:35:28;;;;;;;3.10;1.90;;;14.20;99.90;;;;;;5008351;28;20226;-77
2021/05/22 00:37:54;;;;;;;2.80;2.23;;;14.20;99.90;;;;;;5008276;28;20213;-77
2021/05/22 00:40:21;;;;;;;2.70;2.50;;;14.20;99.90;;;;;;5008238;28;20201;-77
2021/05/22 00:42:47;;;;;;;3.30;2.10;;;14.20;99.90;;;;;;5007665;28;20237;-77
2021/05/22 00:45:17;;;;;;;4.10;2.27;;;14.20;99.90;;;;;;5008123;28;20246;-77
2021/05/22 00:47:47;;;;;;;2.50;2.30;;;14.10;99.90;;;;;;5008023;28;20735;-77
2021/05/22 00:50:17;;;;;;;5.60;2.30;;;14.10;99.90;;;;;;5007954;28;20220;-77
2021/05/22 00:52:43;;;;;;;2.33;2.17;;;14.00;99.90;;;;;;5008323;28;20222;-77
2021/05/22 00:55:11;;;;;;;3.83;2.40;;;14.00;99.90;;;;;;5008350;28;20821;-77
2021/05/22 00:57:40;;;;;;;2.67;2.13;;;14.00;99.90;;;;;;5007742;28;20776;-77
2021/05/22 01:00:09;;;;;;;6.37;2.10;;;13.90;99.90;;;;;;5007645;28;20270;-77
2021/05/22 01:02:36;;;;;;;3.03;2.17;;;13.90;99.90;;;;;;5007873;28;20286;-77
2021/05/22 01:05:05;;;;;;;4.80;2.43;;;14.00;99.90;;;;;;5007448;28;20599;-77
2021/05/22 01:07:31;;;;;;;3.73;2.60;;;14.00;99.90;;;;;;5007664;28;20668;-77
2021/05/22 01:09:58;;;;;;;2.93;2.63;;;13.90;99.90;;;;;;5007799;28;20210;-77
2021/05/22 01:12:28;;;;;;;3.20;2.30;;;13.90;99.90;;;;;;5007526;28;20302;-77
2021/05/22 01:15:02;;;;;;;3.47;2.20;;;13.90;99.90;;;;;;5008345;28;20221;-77
2021/05/22 01:17:30;;;;;;;3.20;2.57;;;13.90;99.90;;;;;;5007870;28;20310;-77
2021/05/22 01:20:06;;;;;;;3.87;2.30;;;13.80;99.90;;;;;;5007530;28;20209;-78
2021/05/22 01:22:38;;;;;;;4.40;2.60;;;13.90;99.90;;;;;;5007771;28;20656;-77
2021/05/22 01:25:07;;;;;;;3.77;2.40;;;13.90;99.90;;;;;;5006344;28;20672;-77
2021/05/22 01:27:36;;;;;;;5.00;2.10;;;13.80;99.90;;;;;;5007605;28;20793;-77
2021/05/22 01:30:05;;;;;;;2.27;2.07;;;13.80;99.90;;;;;;5007222;28;20676;-77
2021/05/22 01:32:31;;;;;;;2.30;1.83;;;13.80;99.90;;;;;;5007818;28;20328;-77
2021/05/22 01:34:58;;;;;;;3.20;2.50;;;13.80;99.90;;;;;;5007418;28;20286;-77
2021/05/22 01:37:24;;;;;;;2.90;1.97;;;13.80;99.90;;;;;;5007444;28;20209;-77
2021/05/22 01:39:50;;;;;;;3.17;2.23;;;13.80;99.90;;;;;;5007513;28;20206;-78
2021/05/22 01:42:16;;;;;;;6.37;2.23;;;13.80;99.90;;;;;;5007380;28;20302;-79
2021/05/22 01:44:45;;;;;;;4.20;2.07;;;13.80;99.90;;;;;;5007034;28;20238;-79
2021/05/22 01:47:12;;;;;;;3.67;1.90;;;13.80;99.90;;;;;;5007277;28;20245;-79
2021/05/22 01:49:38;;;;;;;3.73;2.00;;;13.80;99.90;;;;;;5007215;28;20740;-80
2021/05/22 01:52:06;;;;;;;4.20;2.00;;;13.80;99.90;;;;;;5007239;28;21003;-79
2021/05/22 01:54:32;;;;;;;3.53;2.00;;;13.80;99.90;;;;;;5007743;28;20245;-79
2021/05/22 01:57:00;;;;;;;2.70;1.70;;;13.80;99.90;;;;;;5006954;28;20205;-80
2021/05/22 01:59:27;;;;;;;4.03;1.90;;;13.80;99.90;;;;;;5007093;28;20236;-80
2021/05/22 02:01:56;;;;;;;2.93;1.80;;;13.80;99.90;;;;;;5006964;28;20446;-79
2021/05/22 02:04:25;;;;;;;4.97;2.47;;;13.80;99.90;;;;;;5007496;28;20288;-80
2021/05/22 02:06:53;;;;;;;5.00;2.00;;;13.80;99.90;;;;;;5007054;28;20208;-80
2021/05/22 02:09:21;;;;;;;3.03;1.63;;;13.80;99.90;;;;;;5007072;28;20210;-79
2021/05/22 02:11:48;;;;;;;5.30;2.30;;;13.80;99.90;;;;;;5007413;28;20576;-80
2021/05/22 02:14:20;;;;;;;3.57;2.10;;;13.80;99.90;;;;;;5007274;28;20205;-79
2021/05/22 02:16:49;;;;;;;3.43;1.80;;;13.70;99.90;;;;;;5007035;28;20198;-78
2021/05/22 02:19:18;;;;;;;4.70;1.90;;;13.70;99.90;;;;;;5006935;28;20206;-78
2021/05/22 02:21:45;;;;;;;3.53;1.90;;;13.80;99.90;;;;;;5006941;28;20231;-78
2021/05/22 02:24:12;;;;;;;3.27;1.80;;;13.80;99.90;;;;;;5006753;28;20209;-77
2021/05/22 02:26:39;;;;;;;3.40;1.53;;;13.80;99.90;;;;;;5006822;28;20236;-80
2021/05/22 02:29:07;;;;;;;3.20;2.07;;;13.80;99.90;;;;;;5006461;28;20671;-80
2021/05/22 02:31:35;;;;;;;4.20;2.10;;;13.70;99.90;;;;;;5006439;28;20694;-80
2021/05/22 02:34:03;;;;;;;4.67;1.80;;;13.80;99.90;;;;;;5006518;28;20213;-80
2021/05/22 02:36:31;;;;;;;3.90;2.00;;;13.80;99.90;;;;;;5006490;28;20234;-80
2021/05/22 02:39:00;;;;;;;4.20;1.80;;;13.60;99.90;;;;;;5006496;28;20208;-80
2021/05/22 02:41:27;;;;;;;4.13;1.77;;;13.40;99.90;;;;;;5007127;28;20687;-80
2021/05/22 02:43:56;;;;;;;5.80;1.80;;;13.40;99.90;;;;;;5006718;28;20240;-80
2021/05/22 02:46:24;;;;;;;3.67;1.90;;;13.40;99.90;;;;;;5006591;28;20206;-80
2021/05/22 02:48:52;;;;;;;2.37;1.80;;;13.40;99.90;;;;;;5006767;28;20213;-80
2021/05/22 02:51:21;;;;;;;2.70;1.80;;;13.40;99.90;;;;;;5006516;28;20217;-80
2021/05/22 02:53:49;;;;;;;3.43;1.70;;;13.20;99.90;;;;;;5006580;28;20248;-80
2021/05/22 02:56:18;;;;;;;1.60;1.50;;;13.10;99.90;;;;;;5006115;28;20210;-80
2021/05/22 02:58:45;;;;;;;4.50;1.80;;;13.10;99.90;;;;;;5006363;28;20201;-80
2021/05/22 03:01:12;;;;;;;4.57;2.00;;;12.90;99.90;;;;;;5005957;28;20232;-80
2021/05/22 03:03:39;;;;;;;3.17;1.50;;;12.90;99.90;;;;;;5006504;28;20213;-80
2021/05/22 03:06:05;;;;;;;4.17;1.80;;;12.90;99.90;;;;;;5006144;28;20255;-80
2021/05/22 03:08:41;;;;;;;3.37;1.80;;;12.80;99.90;;;;;;5006473;28;20213;-80
2021/05/22 03:11:09;;;;;;;6.33;2.00;;;12.70;99.90;;;;;;5006010;28;20201;-77
2021/05/22 03:13:35;;;;;;;3.40;1.73;;;12.60;99.90;;;;;;5005929;28;20244;-78
2021/05/22 03:16:01;;;;;;;2.60;2.13;;;12.70;99.90;;;;;;5005502;28;20663;-77
2021/05/22 03:18:27;;;;;;;2.30;1.80;;;12.90;99.90;;;;;;5006228;28;20209;-77
2021/05/22 03:20:54;;;;;;;2.77;1.90;;;13.00;99.90;;;;;;5006212;28;20948;-77
2021/05/22 03:23:21;;;;;;;5.43;1.83;;;13.10;99.90;;;;;;5005488;28;20214;-77
2021/05/22 03:25:47;;;;;;;3.00;2.00;;;13.00;99.90;;;;;;5006000;28;20259;-78
2021/05/22 03:28:14;;;;;;;2.97;1.70;;;13.10;99.90;;;;;;5005662;28;20209;-79
2021/05/22 03:30:40;;;;;;;5.03;1.83;;;13.30;99.90;;;;;;5005962;28;20221;-78
2021/05/22 03:33:06;;;;;;;3.93;1.90;;;13.30;99.90;;;;;;5005123;28;20725;-79
2021/05/22 03:35:32;;;;;;;3.60;2.27;;;13.40;99.90;;;;;;5005653;28;20225;-78
2021/05/22 03:37:58;;;;;;;6.27;1.60;;;13.50;99.90;;;;;;5005706;28;20296;-79
2021/05/22 03:40:24;;;;;;;3.07;1.70;;;13.50;99.90;;;;;;5005867;28;20233;-79
2021/05/22 03:42:51;;;;;;;2.70;1.93;;;13.60;99.90;;;;;;5005780;28;20240;-80
2021/05/22 03:45:18;;;;;;;3.50;1.77;;;13.60;99.90;;;;;;5005610;28;20273;-78
2021/05/22 03:47:44;;;;;;;2.83;1.47;;;13.60;99.90;;;;;;5007756;28;20743;-78
2021/05/22 03:50:12;;;;;;;4.17;1.60;;;13.60;99.90;;;;;;5008906;28;20274;-80
2021/05/22 03:52:38;;;;;;;3.27;1.70;;;13.60;99.90;;;;;;5008893;28;20237;-78
2021/05/22 03:55:05;;;;;;;2.80;2.00;;;13.60;99.90;;;;;;5008745;28;20569;-79
2021/05/22 03:57:31;;;;;;;2.37;1.83;;;13.70;99.90;;;;;;5008969;28;20205;-79
2021/05/22 03:59:57;;;;;;;3.07;2.00;;;13.70;99.90;;;;;;5008822;28;20233;-79
2021/05/22 04:02:25;;;;;;;3.03;1.70;;;13.70;99.90;;;;;;5008812;28;20209;-80
2021/05/22 04:04:51;;;;;;;3.47;1.63;;;13.70;99.90;;;;;;5008941;28;20213;-80
2021/05/22 04:07:17;;;;;;;2.33;1.70;;;13.70;99.90;;;;;;5009121;28;20214;-80
2021/05/22 04:09:43;;;;;;;1.83;1.67;;;13.70;99.90;;;;;;5008560;28;20250;-80
2021/05/22 04:12:09;;;;;;;1.90;1.60;;;13.70;99.90;;;;;;5008890;28;20593;-79
2021/05/22 04:14:35;;;;;;;2.50;1.67;;;13.80;99.90;;;;;;5009177;28;20205;-82
2021/05/22 04:17:02;;;;;;;3.67;1.80;;;13.80;99.90;;;;;;5009415;28;20205;-82
2021/05/22 04:19:29;;;;;;;1.60;1.50;;;13.80;99.90;;;;;;5009223;28;20626;-82
2021/05/22 04:21:55;;;;;;;5.00;2.10;;;13.90;99.90;;;;;;5008892;28;20205;-78
2021/05/22 04:24:21;;;;;;;2.03;1.80;;;13.90;99.90;;;;;;5008280;28;20707;-75
2021/05/22 04:26:47;;;;;;;3.10;1.70;;;14.00;99.90;;;;;;5008724;28;20210;-76
2021/05/22 04:29:13;;;;;;;3.43;1.87;;;13.90;99.90;;;;;;5008513;28;20205;-76
2021/05/22 04:31:39;;;;;;;6.43;2.13;;;14.00;99.90;;;;;;5008637;28;20205;-76
2021/05/22 04:34:06;;;;;;;3.53;1.90;;;14.00;99.90;;;;;;5008304;28;20209;-75
2021/05/22 04:36:33;;;;;;;3.03;2.00;;;14.00;99.90;;;;;;5008655;28;20244;-76
2021/05/22 04:38:59;;;;;;;3.07;2.00;;;13.90;99.90;;;;;;5008167;28;20563;-77
2021/05/22 04:41:25;;;;;;;4.17;2.10;;;13.80;99.90;;;;;;5008064;28;20847;-77
2021/05/22 04:43:51;;;;;;;1.70;1.60;;;13.90;99.90;;;;;;5008368;28;20264;-76
2021/05/22 04:46:18;;;;;;;1.87;1.67;;;13.80;99.90;;;;;;5008504;28;20206;-77
2021/05/22 04:48:44;;;;;;;5.37;1.93;;;13.80;99.90;;;;;;5008175;28;20706;-77
2021/05/22 04:51:11;;;;;;;3.73;1.80;;;13.60;99.90;;;;;;5007885;28;20212;-77
2021/05/22 04:53:38;;;;;;;3.23;1.70;;;13.40;99.90;;;;;;5007506;28;21051;-77
2021/05/22 04:56:05;;;;;;;1.70;1.60;;;13.40;99.90;;;;;;5007927;28;20209;-77
2021/05/22 04:58:31;;;;;;;3.20;1.90;;;13.10;99.90;;;;;;5006780;28;20748;-77
2021/05/22 05:00:57;;;;;;;4.40;2.03;;;13.10;99.90;;;;;;5007703;28;20274;-79
2021/05/22 05:03:23;;;;;;;3.00;2.47;;;13.30;99.90;;;;;;5008001;28;20270;-79
2021/05/22 05:05:49;;;;;;;2.53;1.80;;;13.40;99.90;;;;;;5008119;28;20205;-79
2021/05/22 05:08:18;;;;;;;4.90;2.00;;;13.30;99.90;;;;;;5008096;28;20740;-78
2021/05/22 05:10:45;;;;;;;2.13;1.77;;;13.30;99.90;;;;;;5008124;28;20241;-79
2021/05/22 05:13:12;;;;;;;2.20;1.80;;;13.50;99.90;;;;;;5007930;28;20234;-79
2021/05/22 05:15:39;;;;;;;3.97;1.77;;;13.60;99.90;;;;;;5008123;28;20218;-80
2021/05/22 05:18:05;;;;;;;2.73;1.93;;;13.20;99.90;;;;;;5008424;28;20209;-80
2021/05/22 05:20:31;;;;;;;2.70;2.10;;;13.00;99.90;;;;;;5008121;28;20283;-79
2021/05/22 05:22:57;;;;;;;2.10;1.63;;;13.00;99.90;;;;;;5008221;28;20220;-80
2021/05/22 05:25:23;;;;;;;2.23;1.40;;;13.00;99.90;;;;;;5008427;28;20214;-81
2021/05/22 05:27:50;;;;;;;4.13;1.70;;;12.90;99.90;;;;;;5008784;28;20360;-81
2021/05/22 05:30:18;;;;;;;3.80;1.50;;;13.00;99.90;;;;;;5008618;28;20230;-80
2021/05/22 05:32:44;;;;;;;1.40;1.30;;;13.00;99.90;;;;;;5008412;28;20286;-81
2021/05/22 05:35:11;;;;;;;2.37;1.53;;;13.00;99.90;;;;;;5008397;28;20594;-82
2021/05/22 05:37:38;;;;;;;4.47;1.60;;;12.90;99.90;;;;;;5008219;28;20716;-77
2021/05/22 05:40:05;;;;;;;2.63;1.47;;;12.90;99.90;;;;;;5007046;28;20572;-78
2021/05/22 05:42:31;;;;;;;3.13;1.60;;;12.90;99.90;;;;;;5007492;28;20216;-78
2021/05/22 05:44:58;;;;;;;1.73;1.07;;;12.60;99.90;;;;;;5007550;28;20206;-78
2021/05/22 05:47:25;;;;;;;1.63;1.30;;;12.40;99.90;;;;;;5007470;28;20282;-78
2021/05/22 05:49:51;;;;;;;3.47;0.90;;;12.30;99.90;;;;;;5008030;28;20609;-78
2021/05/22 05:52:17;;;;;;;2.20;1.30;;;12.00;99.90;;;;;;5007198;28;20261;-78
2021/05/22 05:54:43;;;;;;;1.53;1.40;;;12.00;99.90;;;;;;5007373;28;20623;-79
2021/05/22 05:57:10;;;;;;;1.23;1.13;;;11.80;99.90;;;;;;5006988;28;20214;-78
2021/05/22 05:59:36;;;;;;;3.13;1.40;;;11.80;99.90;;;;;;5007152;28;20244;-80
2021/05/22 06:02:03;;;;;;;2.67;1.20;;;11.80;99.90;;;;;;5007476;28;20574;-80
2021/05/22 06:04:29;;;;;;;1.67;1.57;;;11.90;99.90;;;;;;5007091;28;20221;-79
2021/05/22 06:06:55;;;;;;;2.33;1.40;;;12.10;99.90;;;;;;5007612;28;20546;-79
2021/05/22 06:09:21;;;;;;;3.30;1.70;;;12.30;99.90;;;;;;5006234;28;20663;-80
2021/05/22 06:11:47;;;;;;;2.40;1.50;;;12.60;99.90;;;;;;5006820;28;20595;-80
2021/05/22 06:14:16;;;;;;;2.60;1.30;;;12.70;99.90;;;;;;5006787;28;20237;-81
2021/05/22 06:16:43;;;;;;;1.43;1.33;;;12.90;99.90;;;;;;5007326;28;20296;-82
2021/05/22 06:19:10;;;;;;;2.73;1.40;;;12.80;99.90;;;;;;5007447;28;20220;-84
2021/05/22 06:21:37;;;;;;;2.60;1.47;;;12.70;99.90;;;;;;5008112;28;20246;-80
2021/05/22 06:24:05;;;;;;;2.50;1.17;;;12.80;99.90;;;;;;5007175;28;20218;-81
2021/05/22 06:26:31;;;;;;;2.87;1.37;;;12.90;99.90;;;;;;5006910;28;20244;-80
2021/05/22 06:28:57;;;;;;;1.93;1.20;;;12.90;99.90;;;;;;5006908;28;20206;-80
2021/05/22 06:31:24;;;;;;;1.50;1.40;;;13.10;99.90;;;;;;5006745;28;20209;-80
2021/05/22 06:33:50;;;;;;;1.53;1.43;;;13.30;99.90;;;;;;5007433;28;20597;-83
2021/05/22 06:36:17;;;;;;;3.03;1.70;;;13.40;99.90;;;;;;5007575;28;20222;-80
2021/05/22 06:38:43;;;;;;;3.10;1.20;;;13.40;99.90;;;;;;5006845;28;20214;-80
2021/05/22 06:41:09;;;;;;;4.00;1.50;;;13.50;99.90;;;;;;5006507;28;20572;-81
2021/05/22 06:43:36;;;;;;;2.20;1.47;;;13.60;99.90;;;;;;5006407;28;20237;-81
2021/05/22 06:46:08;;;;;;;1.80;1.40;;;13.70;99.90;;;;;;5006584;28;20224;-80
2021/05/22 06:48:35;;;;;;;3.03;1.47;;;13.80;99.90;;;;;;5006542;28;20683;-81
2021/05/22 06:51:01;;;;;;;2.07;1.30;;;13.60;99.90;;;;;;5007052;28;20205;-81
2021/05/22 06:53:30;;;;;;;2.10;1.43;;;13.80;99.90;;;;;;5006565;28;20237;-81
2021/05/22 06:55:56;;;;;;;2.30;1.57;;;14.00;99.90;;;;;;5006546;28;20201;-82
2021/05/22 06:58:22;;;;;;;1.77;1.67;;;13.80;99.90;;;;;;5006735;28;20210;-81
2021/05/22 07:00:48;;;;;;;2.17;1.60;;;13.70;99.90;;;;;;5006620;28;20234;-82
2021/05/22 07:03:14;;;;;;;1.70;1.60;;;13.70;99.90;;;;;;5007424;28;20213;-85
2021/05/22 07:05:41;;;;;;;3.73;1.70;;;13.70;99.90;;;;;;5008209;28;20218;-86
2021/05/22 07:08:07;;;;;;;2.33;1.50;;;13.60;99.90;;;;;;5008110;28;20209;-85
2021/05/22 07:10:34;;;;;;;2.77;1.80;;;13.70;99.90;;;;;;5006232;28;20676;-78
2021/05/22 07:13:00;;;;;;;1.50;1.40;;;13.60;99.90;;;;;;5005562;28;20703;-77
2021/05/22 07:15:26;;;;;;;2.67;1.43;;;13.60;99.90;;;;;;5005907;28;20244;-76
2021/05/22 07:17:52;;;;;;;1.70;1.53;;;13.70;99.90;;;;;;5005781;28;20217;-77
2021/05/22 07:20:19;;;;;;;1.67;1.00;;;13.70;99.90;;;;;;5005522;28;20640;-77
2021/05/22 07:22:46;;;;;;;1.07;0.97;;;13.70;99.90;;;;;;5004770;28;20221;-76
2021/05/22 07:25:12;;;;;;;3.53;1.07;;;13.70;99.90;;;;;;5005766;28;20225;-77
2021/05/22 07:27:39;;;;;;;1.33;1.03;;;13.70;99.90;;;;;;5005278;28;20702;-76
2021/05/22 07:30:09;;;;;;;1.63;1.13;;;13.70;99.90;;;;;;5005947;28;20210;-77
2021/05/22 07:32:35;;;;;;;2.37;1.13;;;13.70;99.90;;;;;;5005805;28;20225;-78
2021/05/22 07:35:01;;;;;;;1.53;1.20;;;13.70;99.90;;;;;;5005798;28;20233;-77
2021/05/22 07:37:28;;;;;;;1.20;1.10;;;13.80;99.90;;;;;;5005767;28;20206;-77
2021/05/22 07:39:56;;;;;;;0.93;0.93;;;13.90;99.90;;;;;;5005736;28;20638;-78
2021/05/22 07:42:24;;;;;;;2.60;1.00;;;14.10;99.90;;;;;;5005687;28;20213;-80
2021/05/22 07:44:51;;;;;;;0.80;0.73;;;14.00;99.90;;;;;;5005350;28;20667;-78
2021/05/22 07:47:18;;;;;;;1.10;1.00;;;14.00;99.90;;;;;;5005270;28;20212;-79
2021/05/22 07:49:44;;;;;;;2.47;1.10;;;14.10;99.90;;;;;;5005484;28;20585;-80
2021/05/22 07:52:11;;;;;;;1.80;0.93;;;14.10;99.90;;;;;;5005297;28;20221;-80
2021/05/22 07:54:39;;;;;;;1.20;1.10;;;14.00;99.90;;;;;;5005715;28;20227;-80
2021/05/22 07:57:07;;;;;;;2.37;1.70;;;14.10;99.90;;;;;;5005596;28;20206;-80
2021/05/22 07:59:33;;;;;;;1.00;1.00;;;14.00;99.90;;;;;;5005749;28;20322;-80
2021/05/22 08:02:01;;;;;;;2.77;1.40;;;14.00;99.90;;;;;;5005175;28;20683;-78
2021/05/22 08:04:27;;;;;;;4.83;1.60;;;13.80;99.90;;;;;;5004290;28;20752;-76
2021/05/22 08:06:54;;;;;;;1.27;1.13;;;13.80;99.90;;;;;;4998941;28;20218;-76
2021/05/22 08:09:23;;;;;;;1.57;0.87;;;13.80;99.90;;;;;;5000615;28;20259;-79
2021/05/22 08:11:49;;;;;;;2.03;1.43;;;13.90;99.90;;;;;;5002629;28;20210;-82
2021/05/22 08:14:16;;;;;;;2.00;1.20;;;14.10;99.90;;;;;;4994400;28;20249;-78
2021/05/22 08:16:44;;;;;;;2.10;0.90;;;14.10;99.90;;;;;;4997852;28;20209;-78
2021/05/22 08:19:12;;;;;;;2.33;0.90;;;14.20;99.90;;;;;;5004211;28;20608;-78
2021/05/22 08:21:39;;;;;;;2.13;1.00;;;14.20;99.90;;;;;;5005084;28;20205;-79
2021/05/22 08:24:07;;;;;;;1.63;0.60;;;14.40;99.90;;;;;;5004524;28;20213;-80
2021/05/22 08:26:34;;;;;;;5.33;1.03;;;14.40;99.90;;;;;;5004898;28;20290;-79
2021/05/22 08:29:01;;;;;;;3.00;1.30;;;14.50;99.90;;;;;;5004724;28;20373;-79
2021/05/22 08:31:27;;;;;;;1.67;0.90;;;14.50;99.90;;;;;;4995184;28;20267;-78
2021/05/22 08:33:53;;;;;;;1.53;1.30;;;14.60;99.90;;;;;;4988608;28;20237;-77
2021/05/22 08:36:20;;;;;;;2.63;0.80;;;14.70;99.90;;;;;;4988644;28;20230;-79
2021/05/22 08:38:47;;;;;;;2.17;1.10;;;14.70;99.90;;;;;;4996994;28;20213;-75
2021/05/22 08:41:13;;;;;;;2.00;0.90;;;14.80;99.90;;;;;;5007196;28;20198;-77
2021/05/22 08:43:39;;;;;;;1.53;0.83;;;14.90;99.90;;;;;;5006686;28;20237;-76
2021/05/22 08:46:09;;;;;;;3.80;1.23;;;15.00;99.90;;;;;;5007389;28;20571;-76
2021/05/22 08:48:36;;;;;;;1.60;0.97;;;15.20;99.90;;;;;;5007571;28;20596;-76
2021/05/22 08:51:02;;;;;;;4.67;2.83;;;15.20;99.90;;;;;;5007931;28;20202;-77
2021/05/22 08:53:29;;;;;;;2.33;2.13;;;15.30;99.90;;;;;;5007050;28;20699;-76
2021/05/22 08:55:55;;;;;;;2.03;1.07;;;15.20;99.90;;;;;;4986754;28;20259;-76
2021/05/22 08:58:21;;;;;;;2.93;1.20;;;15.20;99.90;;;;;;4985989;28;20252;-77
2021/05/22 09:00:48;;;;;;;1.93;1.13;;;15.30;99.90;;;;;;5000419;28;20244;-77
2021/05/22 09:03:14;;;;;;;2.73;1.30;;;15.50;99.90;;;;;;4991201;28;20250;-79
2021/05/22 09:05:42;;;;;;;1.70;1.10;;;15.70;99.90;;;;;;4986478;28;20221;-80
2021/05/22 09:08:11;;;;;;;2.70;1.33;;;15.70;99.90;;;;;;4995461;28;20214;-77
2021/05/22 09:10:40;;;;;;;4.80;1.23;;;15.70;99.90;;;;;;5005892;28;20217;-77
2021/05/22 09:13:08;;;;;;;1.87;0.97;;;15.80;99.90;;;;;;5005189;28;20734;-77
2021/05/22 09:15:36;;;;;;;4.37;1.03;;;15.50;99.90;;;;;;5006205;28;20214;-77
2021/05/22 09:18:05;;;;;;;2.50;0.97;;;15.30;99.90;;;;;;5005791;28;20213;-76
2021/05/22 09:20:33;;;;;;;2.53;0.73;;;15.20;99.90;;;;;;5005022;28;20491;-76
2021/05/22 09:23:05;;;;;;;2.20;1.17;;;15.20;99.90;;;;;;5004770;28;20224;-76
2021/05/22 09:25:32;;;;;;;1.17;0.87;;;15.50;99.90;;;;;;5005171;28;20667;-77
2021/05/22 09:27:59;;;;;;;4.23;1.60;;;15.60;99.90;;;;;;5005312;28;20214;-77
2021/05/22 09:30:27;;;;;;;2.97;1.30;;;15.50;99.90;;;;;;5005481;28;20206;-77
2021/05/22 09:32:54;;;;;;;3.60;1.23;;;15.60;99.90;;;;;;5005695;28;20637;-77
2021/05/22 09:35:22;;;;;;;2.47;1.10;;;15.80;99.90;;;;;;5005287;28;20320;-78
2021/05/22 09:37:51;;;;;;;3.60;1.30;;;16.10;99.90;;;;;;5005893;28;20210;-76
2021/05/22 09:40:20;;;;;;;2.93;1.07;;;16.10;99.90;;;;;;5005297;28;20221;-77
2021/05/22 09:42:46;;;;;;;4.37;0.97;;;16.20;99.90;;;;;;5005344;28;20309;-77
2021/05/22 09:45:28;;;;;;;1.97;1.17;;;16.30;99.60;;;;;;5004561;28;20204;-78
2021/05/22 09:47:57;;;;;;;2.83;1.27;;;16.30;99.60;;;;;;5005456;28;20190;-76
2021/05/22 09:50:36;;;;;;;1.40;0.90;;;16.30;99.80;;;;;;5005514;28;20272;-80
2021/05/22 09:53:24;;;;;;;5.23;1.47;;;16.10;99.90;;;;;;5006007;28;20225;-80
2021/05/22 09:56:17;;;;;;;1.93;1.03;;;15.90;99.90;;;;;;5002978;28;20205;-76
2021/05/22 09:58:46;;;;;;;2.00;0.77;;;16.00;99.90;;;;;;4998408;28;20218;-76
2021/05/22 10:01:14;;;;;;;2.33;1.10;;;16.00;99.90;;;;;;4987576;28;20206;-76
2021/05/22 10:03:40;;;;;;;2.73;1.00;;;16.10;99.90;;;;;;4987979;28;20275;-77
2021/05/22 10:06:07;;;;;;;5.07;1.20;;;16.10;99.90;;;;;;4987724;28;20210;-76
2021/05/22 10:08:34;;;;;;;1.80;1.40;;;16.00;99.90;;;;;;5001479;28;20980;-76
2021/05/22 10:11:00;;;;;;;1.13;0.80;;;16.00;99.90;;;;;;5006967;28;20210;-76
2021/05/22 10:13:28;;;;;;;42.30;2.13;;;15.80;99.90;;;;;;5006685;28;20290;-77
2021/05/22 10:15:55;;;;;;;5.17;1.03;;;14.90;99.90;;;;;;5006875;28;20216;-77
2021/05/22 10:18:24;;;;;;;5.67;1.53;;;13.30;99.90;;;;;;5006668;28;20715;-76
2021/05/22 10:20:52;;;;;;;1.03;0.97;;;12.60;99.90;;;;;;5006473;28;20207;-76
2021/05/22 10:23:20;;;;;;;2.70;0.93;;;12.50;99.90;;;;;;5006779;28;20229;-76
2021/05/22 10:25:48;;;;;;;1.50;0.90;;;12.60;99.90;;;;;;5000824;28;20210;-78
2021/05/22 10:28:14;;;;;;;1.30;1.03;;;12.70;99.90;;;;;;5000016;28;20230;-78
2021/05/22 10:30:40;;;;;;;1.77;0.80;;;13.00;99.90;;;;;;5001552;28;20209;-76
2021/05/22 10:33:08;;;;;;;2.53;1.10;;;13.30;99.90;;;;;;5006049;28;20584;-76
2021/05/22 10:35:43;;;;;;;2.27;0.70;;;13.20;99.90;;;;;;5005983;28;20228;-77
2021/05/22 10:38:10;;;;;;;4.33;1.03;;;13.10;99.90;;;;;;5006479;28;20213;-76
2021/05/22 10:40:45;;;;;;;1.10;0.73;;;13.10;99.90;;;;;;5006560;28;20401;-76
2021/05/22 10:43:11;;;;;;;2.23;0.90;;;13.30;99.90;;;;;;5002705;28;20225;-76
2021/05/22 10:45:39;;;;;;;1.07;0.60;;;13.50;99.90;;;;;;4990746;28;20257;-75
2021/05/22 10:48:28;;;;;;;2.23;0.73;;;13.90;99.90;;;;;;5002437;28;20284;-76
2021/05/22 10:50:57;;;;;;;1.63;0.77;;;14.20;99.90;;;;;;4999229;28;20248;-76
2021/05/22 10:53:30;;;;;;;1.50;0.90;;;14.60;99.90;;;;;;5002188;28;20239;-76
2021/05/22 10:56:14;;;;;;;2.17;0.77;;;14.90;99.90;;;;;;5004451;28;20194;-76
2021/05/22 10:59:16;;;;;;;1.13;0.80;;;15.20;99.90;;;;;;5004877;28;20534;-76
2021/05/22 11:01:46;;;;;;;1.47;1.00;;;15.60;99.90;;;;;;5001863;28;20605;-77
2021/05/22 11:04:33;;;;;;;2.93;1.03;;;15.80;99.90;;;;;;5004957;28;20293;-76
2021/05/22 11:07:16;;;;;;;1.33;1.10;;;15.60;99.90;;;;;;5004219;28;20201;-76
2021/05/22 11:09:51;;;;;;;1.93;0.97;;;15.40;99.90;;;;;;5004362;28;20251;-76
2021/05/22 11:12:50;;;;;;;2.27;1.30;;;14.90;99.90;;;;;;5004716;28;20596;-76
2021/05/22 11:15:40;;;;;;;2.00;1.50;;;14.50;99.90;;;;;;5000961;28;20213;-76
2021/05/22 11:18:09;;;;;;;1.43;1.13;;;14.30;99.90;;;;;;5002515;28;20205;-76
2021/05/22 11:20:37;;;;;;;2.83;0.90;;;14.30;99.90;;;;;;5004560;28;20297;-76
2021/05/22 11:23:04;;;;;;;2.07;1.10;;;14.10;99.90;;;;;;5004829;28;20650;-76
2021/05/22 11:25:48;;;;;;;2.13;0.90;;;14.00;99.90;;;;;;5004327;28;20209;-77
2021/05/22 11:28:20;;;;;;;4.23;1.10;;;13.80;99.90;;;;;;5002610;28;20201;-78
2021/05/22 11:30:48;;;;;;;2.97;1.20;;;13.90;99.90;;;;;;5003052;28;20627;-78
2021/05/22 11:33:28;;;;;;;2.00;0.73;;;14.10;99.90;;;;;;5004176;28;20695;-78
2021/05/22 11:35:57;;;;;;;1.40;0.83;;;14.50;99.90;;;;;;5003946;28;20221;-77
2021/05/22 11:38:38;;;;;;;2.27;0.90;;;14.90;99.90;;;;;;5004050;28;20202;-76
2021/05/22 11:41:38;;;;;;;1.80;1.20;;;15.30;99.90;;;;;;5005287;28;20201;-76
2021/05/22 11:44:08;;;;;;;2.27;0.80;;;15.70;99.90;;;;;;4969612;28;20245;-76
2021/05/22 11:46:35;;;;;;;1.57;1.17;;;16.10;99.90;;;;;;5004667;28;20233;-76
2021/05/22 11:49:02;;;;;;;4.53;1.13;;;16.20;99.90;;;;;;5004410;28;20206;-76
2021/05/22 11:51:32;;;;;;;1.63;0.97;;;16.00;99.90;;;;;;5004197;28;20197;-76
2021/05/22 11:54:01;;;;;;;2.17;0.73;;;15.90;99.90;;;;;;5004144;28;20229;-76
2021/05/22 11:56:29;;;;;;;4.00;1.03;;;15.90;99.90;;;;;;5000885;28;20255;-76
2021/05/22 11:58:56;;;;;;;5.07;1.37;;;15.70;99.90;;;;;;5003821;28;20580;-76
2021/05/22 12:01:25;;;;;;;3.60;1.30;;;15.80;99.90;;;;;;5004420;28;20251;-76
2021/05/22 12:03:52;;;;;;;6.17;1.03;;;16.10;99.90;;;;;;5004340;28;20201;-76
2021/05/22 12:06:31;;;;;;;1.67;0.73;;;16.60;99.90;;;;;;5004053;28;20202;-76
2021/05/22 12:09:17;;;;;;;2.27;1.07;;;16.80;99.90;;;;;;5005618;28;20226;-77
2021/05/22 12:11:57;;;;;;;2.67;0.83;;;16.90;99.70;;;;;;5007049;28;20190;-76
2021/05/22 12:14:23;;;;;;;2.13;0.87;;;16.80;99.00;;;;;;5006812;28;20294;-76
2021/05/22 12:16:59;;;;;;;2.30;0.97;;;16.60;99.70;;;;;;5007400;28;20205;-77
2021/05/22 12:19:27;;;;;;;4.87;1.73;;;16.30;99.00;;;;;;5006872;28;20228;-76
2021/05/22 12:21:54;;;;;;;2.20;0.90;;;16.20;99.70;;;;;;5006765;28;20206;-77
2021/05/22 12:24:22;;;;;;;2.57;0.83;;;16.10;99.90;;;;;;5007549;28;20214;-77
2021/05/22 12:26:51;;;;;;;2.90;1.10;;;16.40;99.40;;;;;;5007857;28;20598;-76
2021/05/22 12:29:18;;;;;;;3.30;1.50;;;16.90;99.00;;;;;;5007234;28;20258;-76
2021/05/22 12:31:52;;;;;;;2.67;0.67;;;17.20;98.20;;;;;;5004237;28;20209;-76
2021/05/22 12:34:25;;;;;;;2.53;1.00;;;17.00;98.90;;;;;;5007311;28;20768;-77
2021/05/22 12:36:56;;;;;;;1.87;1.00;;;16.90;98.30;;;;;;5007646;28;20209;-76
2021/05/22 12:39:24;;;;;;;2.40;1.17;;;16.80;99.60;;;;;;5004110;28;20652;-76
2021/05/22 12:41:50;;;;;;;2.57;0.70;;;16.30;99.80;;;;;;4989398;28;20210;-77
2021/05/22 12:44:20;;;;;;;2.23;0.90;;;16.20;99.90;;;;;;4992256;28;20233;-78
2021/05/22 12:46:55;;;;;;;5.77;0.83;;;16.40;99.90;;;;;;5002788;28;20659;-76
2021/05/22 12:49:22;;;;;;;2.40;0.70;;;16.50;99.80;;;;;;5001047;28;20208;-76
2021/05/22 12:52:00;;;;;;;2.53;0.60;;;16.80;98.50;;;;;;4995002;28;20224;-76
2021/05/22 12:54:33;;;;;;;2.50;0.80;;;16.90;98.50;;;;;;4986415;28;20222;-76